sensor_id;sensor_type;location;lat;lon;timestamp;pressure;altitude;pressure_sealevel;temperature;humidity
19789;BME280;10054;59.332;18.244;2023-07-31T00:00:24;99761.84;;;16.61;100.00
19789;BME280;10054;59.332;18.244;2023-07-31T00:02:53;99767.97;;;16.58;100.00
19789;BME280;10054;59.332;18.244;2023-07-31T00:05:22;99762.61;;;16.54;100.00
19789;BME280;10054;59.332;18.244;2023-07-31T00:07:51;99764.90;;;16.49;100.00
19789;BME280;10054;59.332;18.244;2023-07-31T00:10:21;99761.37;;;16.44;100.00
19789;BME280;10054;59.332;18.244;2023-07-31T00:12:50;99762.66;;;16.40;100.00
19789;BME280;10054;59.332;18.244;2023-07-31T00:15:18;99760.80;;;16.36;100.00
19789;BME280;10054;59.332;18.244;2023-07-31T00:17:47;99757.80;;;16.31;100.00
19789;BME280;10054;59.332;18.244;2023-07-31T00:20:15;99760.77;;;16.28;100.00
19789;BME280;10054;59.332;18.244;2023-07-31T00:22:44;99759.74;;;16.25;100.00
19789;BME280;10054;59.332;18.244;2023-07-31T00:25:12;99759.55;;;16.23;100.00
19789;BME280;10054;59.332;18.244;2023-07-31T00:27:41;99750.55;;;16.20;100.00
19789;BME280;10054;59.332;18.244;2023-07-31T00:30:11;99752.67;;;16.16;100.00
19789;BME280;10054;59.332;18.244;2023-07-31T00:32:40;99753.12;;;16.12;100.00
19789;BME280;10054;59.332;18.244;2023-07-31T00:35:10;99750.92;;;16.07;100.00
19789;BME280;10054;59.332;18.244;2023-07-31T00:37:38;99754.38;;;16.03;100.00
19789;BME280;10054;59.332;18.244;2023-07-31T00:40:08;99753.50;;;15.99;100.00
19789;BME280;10054;59.332;18.244;2023-07-31T00:42:36;99755.14;;;15.96;100.00
19789;BME280;10054;59.332;18.244;2023-07-31T00:45:06;99755.09;;;15.92;100.00
19789;BME280;10054;59.332;18.244;2023-07-31T00:47:34;99757.08;;;15.90;100.00
19789;BME280;10054;59.332;18.244;2023-07-31T00:50:03;99760.68;;;15.85;100.00
19789;BME280;10054;59.332;18.244;2023-07-31T00:52:33;99758.96;;;15.80;100.00
19789;BME280;10054;59.332;18.244;2023-07-31T00:55:02;99759.41;;;15.75;100.00
19789;BME280;10054;59.332;18.244;2023-07-31T00:57:31;99763.20;;;15.72;100.00
19789;BME280;10054;59.332;18.244;2023-07-31T01:00:00;99761.83;;;15.68;100.00
19789;BME280;10054;59.332;18.244;2023-07-31T01:02:31;99770.94;;;15.66;100.00
19789;BME280;10054;59.332;18.244;2023-07-31T01:05:01;99763.27;;;15.63;100.00
19789;BME280;10054;59.332;18.244;2023-07-31T01:07:59;99768.73;;;15.61;100.00
19789;BME280;10054;59.332;18.244;2023-07-31T01:10:33;99763.06;;;15.60;100.00
19789;BME280;10054;59.332;18.244;2023-07-31T01:13:02;99758.59;;;15.61;100.00
19789;BME280;10054;59.332;18.244;2023-07-31T01:15:32;99760.26;;;15.62;100.00
19789;BME280;10054;59.332;18.244;2023-07-31T01:18:00;99760.61;;;15.63;100.00
19789;BME280;10054;59.332;18.244;2023-07-31T01:20:32;99766.76;;;15.63;100.00
19789;BME280;10054;59.332;18.244;2023-07-31T01:31:17;99747.66;;;15.64;100.00
19789;BME280;10054;59.332;18.244;2023-07-31T01:33:45;99750.95;;;15.62;100.00
19789;BME280;10054;59.332;18.244;2023-07-31T01:36:14;99747.95;;;15.61;100.00
19789;BME280;10054;59.332;18.244;2023-07-31T01:38:43;99748.63;;;15.59;100.00
19789;BME280;10054;59.332;18.244;2023-07-31T01:41:12;99747.56;;;15.56;100.00
19789;BME280;10054;59.332;18.244;2023-07-31T01:43:41;99749.19;;;15.53;100.00
19789;BME280;10054;59.332;18.244;2023-07-31T01:46:09;99749.19;;;15.53;100.00
19789;BME280;10054;59.332;18.244;2023-07-31T01:48:38;99748.34;;;15.52;100.00
19789;BME280;10054;59.332;18.244;2023-07-31T01:51:06;99748.16;;;15.50;100.00
19789;BME280;10054;59.332;18.244;2023-07-31T01:53:36;99753.28;;;15.47;100.00
19789;BME280;10054;59.332;18.244;2023-07-31T01:56:05;99747.62;;;15.46;100.00
19789;BME280;10054;59.332;18.244;2023-07-31T01:58:34;99751.75;;;15.44;100.00
19789;BME280;10054;59.332;18.244;2023-07-31T02:01:03;99753.57;;;15.44;100.00
19789;BME280;10054;59.332;18.244;2023-07-31T02:03:33;99753.08;;;15.44;100.00
19789;BME280;10054;59.332;18.244;2023-07-31T02:06:02;99745.11;;;15.44;100.00
19789;BME280;10054;59.332;18.244;2023-07-31T02:08:30;99747.62;;;15.46;100.00
19789;BME280;10054;59.332;18.244;2023-07-31T02:10:59;99746.97;;;15.48;100.00
19789;BME280;10054;59.332;18.244;2023-07-31T02:13:27;99752.34;;;15.52;100.00
19789;BME280;10054;59.332;18.244;2023-07-31T02:15:56;99743.23;;;15.55;100.00
19789;BME280;10054;59.332;18.244;2023-07-31T02:18:26;99744.30;;;15.58;100.00
19789;BME280;10054;59.332;18.244;2023-07-31T02:20:54;99743.45;;;15.57;100.00
19789;BME280;10054;59.332;18.244;2023-07-31T02:23:23;99741.29;;;15.57;100.00
19789;BME280;10054;59.332;18.244;2023-07-31T02:25:52;99743.80;;;15.58;100.00
19789;BME280;10054;59.332;18.244;2023-07-31T02:28:20;99739.47;;;15.57;100.00
19789;BME280;10054;59.332;18.244;2023-07-31T02:30:50;99739.09;;;15.56;100.00
19789;BME280;10054;59.332;18.244;2023-07-31T02:33:19;99732.83;;;15.57;100.00
19789;BME280;10054;59.332;18.244;2023-07-31T02:35:48;99733.17;;;15.58;100.00
19789;BME280;10054;59.332;18.244;2023-07-31T02:38:18;99725.53;;;15.59;100.00
19789;BME280;10054;59.332;18.244;2023-07-31T02:40:46;99730.67;;;15.61;100.00
19789;BME280;10054;59.332;18.244;2023-07-31T02:43:17;99721.05;;;15.60;100.00
19789;BME280;10054;59.332;18.244;2023-07-31T02:45:50;99721.05;;;15.60;100.00
19789;BME280;10054;59.332;18.244;2023-07-31T02:48:16;99715.05;;;15.58;100.00
19789;BME280;10054;59.332;18.244;2023-07-31T02:50:46;99717.83;;;15.56;100.00
19789;BME280;10054;59.332;18.244;2023-07-31T02:53:15;99727.13;;;15.56;100.00
19789;BME280;10054;59.332;18.244;2023-07-31T02:55:48;99725.95;;;15.55;100.00
19789;BME280;10054;59.332;18.244;2023-07-31T02:58:16;99724.77;;;15.53;100.00
19789;BME280;10054;59.332;18.244;2023-07-31T03:00:45;99723.25;;;15.51;100.00
19789;BME280;10054;59.332;18.244;2023-07-31T03:03:13;99717.09;;;15.50;100.00
19789;BME280;10054;59.332;18.244;2023-07-31T03:05:42;99721.08;;;15.50;100.00
19789;BME280;10054;59.332;18.244;2023-07-31T03:08:11;99718.42;;;15.50;100.00
19789;BME280;10054;59.332;18.244;2023-07-31T03:10:39;99717.09;;;15.50;100.00
19789;BME280;10054;59.332;18.244;2023-07-31T03:13:08;99716.26;;;15.50;100.00
19789;BME280;10054;59.332;18.244;2023-07-31T03:15:37;99714.14;;;15.53;100.00
19789;BME280;10054;59.332;18.244;2023-07-31T03:18:05;99709.64;;;15.67;100.00
19789;BME280;10054;59.332;18.244;2023-07-31T03:20:34;99711.02;;;15.89;100.00
19789;BME280;10054;59.332;18.244;2023-07-31T03:23:02;99712.13;;;16.00;100.00
19789;BME280;10054;59.332;18.244;2023-07-31T03:25:31;99718.43;;;15.99;100.00
19789;BME280;10054;59.332;18.244;2023-07-31T03:27:59;99718.05;;;15.94;100.00
19789;BME280;10054;59.332;18.244;2023-07-31T03:30:30;99716.34;;;15.89;100.00
19789;BME280;10054;59.332;18.244;2023-07-31T03:32:59;99712.95;;;15.83;100.00
19789;BME280;10054;59.332;18.244;2023-07-31T03:35:28;99708.77;;;15.81;100.00
19789;BME280;10054;59.332;18.244;2023-07-31T03:37:56;99709.76;;;15.80;100.00
19789;BME280;10054;59.332;18.244;2023-07-31T03:40:25;99709.61;;;15.81;100.00
19789;BME280;10054;59.332;18.244;2023-07-31T03:42:53;99709.50;;;15.87;100.00
19789;BME280;10054;59.332;18.244;2023-07-31T03:45:22;99712.54;;;15.92;100.00
19789;BME280;10054;59.332;18.244;2023-07-31T03:47:51;99709.61;;;15.99;100.00
19789;BME280;10054;59.332;18.244;2023-07-31T03:50:21;99709.16;;;16.03;100.00
19789;BME280;10054;59.332;18.244;2023-07-31T03:52:49;99703.22;;;16.09;100.00
19789;BME280;10054;59.332;18.244;2023-07-31T03:55:18;99691.66;;;16.19;100.00
19789;BME280;10054;59.332;18.244;2023-07-31T03:57:46;99693.92;;;16.31;100.00
19789;BME280;10054;59.332;18.244;2023-07-31T04:00:15;99696.09;;;16.36;100.00
19789;BME280;10054;59.332;18.244;2023-07-31T04:02:43;99702.43;;;16.39;100.00
19789;BME280;10054;59.332;18.244;2023-07-31T04:05:12;99697.94;;;16.39;100.00
19789;BME280;10054;59.332;18.244;2023-07-31T04:07:41;99699.61;;;16.40;100.00
19789;BME280;10054;59.332;18.244;2023-07-31T04:10:09;99694.28;;;16.40;100.00
19789;BME280;10054;59.332;18.244;2023-07-31T04:12:38;99693.95;;;16.39;100.00
19789;BME280;10054;59.332;18.244;2023-07-31T04:15:07;99696.27;;;16.38;100.00
19789;BME280;10054;59.332;18.244;2023-07-31T04:17:35;99694.44;;;16.39;100.00
19789;BME280;10054;59.332;18.244;2023-07-31T04:20:05;99686.27;;;16.36;100.00
19789;BME280;10054;59.332;18.244;2023-07-31T04:22:34;99689.27;;;16.37;100.00
19789;BME280;10054;59.332;18.244;2023-07-31T04:25:02;99690.27;;;16.32;100.00
19789;BME280;10054;59.332;18.244;2023-07-31T04:27:31;99693.23;;;16.29;100.00
19789;BME280;10054;59.332;18.244;2023-07-31T04:29:59;99695.56;;;16.28;100.00
19789;BME280;10054;59.332;18.244;2023-07-31T04:32:28;99696.21;;;16.26;100.00
19789;BME280;10054;59.332;18.244;2023-07-31T04:34:57;99693.70;;;16.25;100.00
19789;BME280;10054;59.332;18.244;2023-07-31T04:37:25;99694.35;;;16.23;100.00
19789;BME280;10054;59.332;18.244;2023-07-31T04:39:54;99699.98;;;16.20;100.00
19789;BME280;10054;59.332;18.244;2023-07-31T04:42:22;99696.80;;;16.16;100.00
19789;BME280;10054;59.332;18.244;2023-07-31T04:44:51;99693.76;;;16.11;100.00
19789;BME280;10054;59.332;18.244;2023-07-31T04:47:20;99697.06;;;16.09;100.00
19789;BME280;10054;59.332;18.244;2023-07-31T04:49:49;99688.89;;;16.06;100.00
19789;BME280;10054;59.332;18.244;2023-07-31T04:52:17;99691.56;;;16.06;100.00
19789;BME280;10054;59.332;18.244;2023-07-31T04:54:46;99692.39;;;16.07;100.00
19789;BME280;10054;59.332;18.244;2023-07-31T04:57:15;99695.09;;;16.11;100.00
19789;BME280;10054;59.332;18.244;2023-07-31T04:59:43;99691.97;;;16.16;100.00
19789;BME280;10054;59.332;18.244;2023-07-31T05:02:12;99692.84;;;16.20;100.00
19789;BME280;10054;59.332;18.244;2023-07-31T05:04:41;99690.52;;;16.21;100.00
19789;BME280;10054;59.332;18.244;2023-07-31T05:07:10;99690.17;;;16.20;100.00
19789;BME280;10054;59.332;18.244;2023-07-31T05:09:38;99692.98;;;16.19;100.00
19789;BME280;10054;59.332;18.244;2023-07-31T05:12:07;99688.00;;;16.20;100.00
19789;BME280;10054;59.332;18.244;2023-07-31T05:14:36;99691.97;;;16.16;100.00
19789;BME280;10054;59.332;18.244;2023-07-31T05:17:04;99689.61;;;16.13;100.00
19789;BME280;10054;59.332;18.244;2023-07-31T05:19:33;99691.94;;;16.12;100.00
19789;BME280;10054;59.332;18.244;2023-07-31T05:22:02;99698.09;;;16.12;100.00
19789;BME280;10054;59.332;18.244;2023-07-31T05:24:30;99695.42;;;16.12;100.00
19789;BME280;10054;59.332;18.244;2023-07-31T05:26:59;99698.73;;;16.10;100.00
19789;BME280;10054;59.332;18.244;2023-07-31T05:29:28;99696.08;;;16.10;100.00
19789;BME280;10054;59.332;18.244;2023-07-31T05:31:56;99700.91;;;16.10;100.00
19789;BME280;10054;59.332;18.244;2023-07-31T05:34:25;99698.55;;;16.07;100.00
19789;BME280;10054;59.332;18.244;2023-07-31T05:36:53;99701.70;;;16.07;100.00
19789;BME280;10054;59.332;18.244;2023-07-31T05:39:23;99694.38;;;16.05;100.00
19789;BME280;10054;59.332;18.244;2023-07-31T05:41:54;99696.87;;;16.06;100.00
19789;BME280;10054;59.332;18.244;2023-07-31T05:44:22;99693.08;;;16.09;100.00
19789;BME280;10054;59.332;18.244;2023-07-31T05:46:51;99692.61;;;16.14;100.00
19789;BME280;10054;59.332;18.244;2023-07-31T05:49:19;99695.95;;;16.16;100.00
19789;BME280;10054;59.332;18.244;2023-07-31T05:51:48;99696.98;;;16.19;100.00
19789;BME280;10054;59.332;18.244;2023-07-31T05:54:17;99694.16;;;16.20;100.00
19789;BME280;10054;59.332;18.244;2023-07-31T05:56:45;99693.17;;;16.21;100.00
19789;BME280;10054;59.332;18.244;2023-07-31T05:59:14;99690.70;;;16.24;100.00
19789;BME280;10054;59.332;18.244;2023-07-31T06:01:43;99690.39;;;16.27;100.00
19789;BME280;10054;59.332;18.244;2023-07-31T06:04:12;99692.68;;;16.22;100.00
19789;BME280;10054;59.332;18.244;2023-07-31T06:06:40;99690.36;;;16.23;100.00
19789;BME280;10054;59.332;18.244;2023-07-31T06:09:09;99683.70;;;16.23;100.00
19789;BME280;10054;59.332;18.244;2023-07-31T06:11:39;99683.89;;;16.25;100.00
19789;BME280;10054;59.332;18.244;2023-07-31T06:14:07;99682.59;;;16.29;100.00
19789;BME280;10054;59.332;18.244;2023-07-31T06:16:36;99679.28;;;16.35;100.00
19789;BME280;10054;59.332;18.244;2023-07-31T06:19:05;99676.80;;;16.38;100.00
19789;BME280;10054;59.332;18.244;2023-07-31T06:21:34;99674.98;;;16.38;100.00
19789;BME280;10054;59.332;18.244;2023-07-31T06:24:05;99674.32;;;16.40;100.00
19789;BME280;10054;59.332;18.244;2023-07-31T06:26:34;99675.34;;;16.43;100.00
19789;BME280;10054;59.332;18.244;2023-07-31T06:29:02;99678.34;;;16.44;100.00
19789;BME280;10054;59.332;18.244;2023-07-31T06:31:31;99684.01;;;16.46;100.00
19789;BME280;10054;59.332;18.244;2023-07-31T06:34:00;99686.02;;;16.48;100.00
19789;BME280;10054;59.332;18.244;2023-07-31T06:36:28;99697.69;;;16.51;100.00
19789;BME280;10054;59.332;18.244;2023-07-31T06:38:57;99706.38;;;16.57;100.00
19789;BME280;10054;59.332;18.244;2023-07-31T06:41:25;99715.41;;;16.64;100.00
19789;BME280;10054;59.332;18.244;2023-07-31T06:43:54;99717.14;;;16.69;100.00
19789;BME280;10054;59.332;18.244;2023-07-31T06:46:24;99717.67;;;16.72;100.00
19789;BME280;10054;59.332;18.244;2023-07-31T06:48:53;99715.37;;;16.78;100.00
19789;BME280;10054;59.332;18.244;2023-07-31T06:51:22;99719.39;;;16.82;100.00
19789;BME280;10054;59.332;18.244;2023-07-31T06:53:50;99721.58;;;16.86;100.00
19789;BME280;10054;59.332;18.244;2023-07-31T06:56:20;99720.61;;;16.91;100.00
19789;BME280;10054;59.332;18.244;2023-07-31T06:58:49;99718.64;;;16.97;100.00
19789;BME280;10054;59.332;18.244;2023-07-31T07:01:18;99715.66;;;17.00;100.00
19789;BME280;10054;59.332;18.244;2023-07-31T07:03:46;99711.34;;;17.03;100.00
19789;BME280;10054;59.332;18.244;2023-07-31T07:06:17;99710.69;;;17.05;100.00
19789;BME280;10054;59.332;18.244;2023-07-31T07:08:46;99708.03;;;17.05;100.00
19789;BME280;10054;59.332;18.244;2023-07-31T07:11:14;99705.36;;;17.05;100.00
19789;BME280;10054;59.332;18.244;2023-07-31T07:13:43;99692.70;;;17.03;100.00
19789;BME280;10054;59.332;18.244;2023-07-31T07:16:11;99687.20;;;17.05;100.00
19789;BME280;10054;59.332;18.244;2023-07-31T07:18:40;99686.38;;;17.04;100.00
19789;BME280;10054;59.332;18.244;2023-07-31T07:21:09;99688.36;;;17.02;100.00
19789;BME280;10054;59.332;18.244;2023-07-31T07:23:39;99686.20;;;17.02;100.00
19789;BME280;10054;59.332;18.244;2023-07-31T07:26:07;99687.69;;;17.00;100.00
19789;BME280;10054;59.332;18.244;2023-07-31T07:28:38;99680.02;;;16.97;100.00
19789;BME280;10054;59.332;18.244;2023-07-31T07:31:06;99660.84;;;16.94;100.00
19789;BME280;10054;59.332;18.244;2023-07-31T07:33:35;99662.31;;;16.88;100.00
19789;BME280;10054;59.332;18.244;2023-07-31T07:36:04;99663.95;;;16.81;100.00
19789;BME280;10054;59.332;18.244;2023-07-31T07:38:34;99666.23;;;16.72;100.00
19789;BME280;10054;59.332;18.244;2023-07-31T10:40:27;99659.63;;;18.77;100.00
19789;BME280;10054;59.332;18.244;2023-07-31T10:42:53;99668.66;;;18.71;100.00
19789;BME280;10054;59.332;18.244;2023-07-31T10:48:16;99675.36;;;18.63;100.00
19789;BME280;10054;59.332;18.244;2023-07-31T10:50:50;99674.53;;;18.55;100.00
19789;BME280;10054;59.332;18.244;2023-07-31T10:53:31;99669.20;;;18.51;100.00
19789;BME280;10054;59.332;18.244;2023-07-31T10:56:04;99676.39;;;18.42;100.00
19789;BME280;10054;59.332;18.244;2023-07-31T10:58:33;99675.73;;;18.32;100.00
19789;BME280;10054;59.332;18.244;2023-07-31T11:01:04;99677.41;;;18.13;100.00
19789;BME280;10054;59.332;18.244;2023-07-31T11:03:51;99684.24;;;17.95;100.00
19789;BME280;10054;59.332;18.244;2023-07-31T11:06:16;99685.73;;;17.85;100.00
19789;BME280;10054;59.332;18.244;2023-07-31T11:08:47;99686.59;;;17.73;100.00
19789;BME280;10054;59.332;18.244;2023-07-31T11:11:18;99693.42;;;17.72;100.00
19789;BME280;10054;59.332;18.244;2023-07-31T11:13:51;99699.74;;;17.67;100.00
19789;BME280;10054;59.332;18.244;2023-07-31T11:16:22;99709.25;;;17.69;100.00
19789;BME280;10054;59.332;18.244;2023-07-31T11:18:52;99711.92;;;17.69;100.00
19789;BME280;10054;59.332;18.244;2023-07-31T11:21:24;99712.27;;;17.75;100.00
19789;BME280;10054;59.332;18.244;2023-07-31T11:23:59;99720.76;;;17.70;100.00
19789;BME280;10054;59.332;18.244;2023-07-31T11:29:13;99727.05;;;17.65;100.00
19789;BME280;10054;59.332;18.244;2023-07-31T11:31:45;99733.38;;;17.64;100.00
19789;BME280;10054;59.332;18.244;2023-07-31T11:34:15;99726.70;;;17.60;100.00
19789;BME280;10054;59.332;18.244;2023-07-31T11:36:54;99728.19;;;17.54;100.00
19789;BME280;10054;59.332;18.244;2023-07-31T11:39:23;99722.97;;;17.40;100.00
19789;BME280;10054;59.332;18.244;2023-07-31T11:41:52;99724.44;;;17.31;100.00
19789;BME280;10054;59.332;18.244;2023-07-31T11:44:20;99720.26;;;17.28;100.00
19789;BME280;10054;59.332;18.244;2023-07-31T11:46:50;99726.06;;;17.24;100.00
19789;BME280;10054;59.332;18.244;2023-07-31T11:49:19;99725.39;;;17.22;100.00
19789;BME280;10054;59.332;18.244;2023-07-31T11:54:42;99719.88;;;17.19;100.00
19789;BME280;10054;59.332;18.244;2023-07-31T11:57:11;99715.38;;;17.16;100.00
19789;BME280;10054;59.332;18.244;2023-07-31T11:59:40;99715.38;;;17.16;100.00
19789;BME280;10054;59.332;18.244;2023-07-31T12:02:11;99717.70;;;17.15;100.00
19789;BME280;10054;59.332;18.244;2023-07-31T12:04:39;99722.36;;;17.13;100.00
19789;BME280;10054;59.332;18.244;2023-07-31T12:07:08;99713.19;;;17.11;100.00
19789;BME280;10054;59.332;18.244;2023-07-31T12:09:37;99718.03;;;17.07;100.00
19789;BME280;10054;59.332;18.244;2023-07-31T12:12:09;99714.34;;;17.08;100.00
19789;BME280;10054;59.332;18.244;2023-07-31T12:14:41;99717.00;;;17.08;100.00
19789;BME280;10054;59.332;18.244;2023-07-31T12:17:10;99712.36;;;17.06;100.00
19789;BME280;10054;59.332;18.244;2023-07-31T12:19:39;99706.52;;;17.03;100.00
19789;BME280;10054;59.332;18.244;2023-07-31T12:22:15;99708.53;;;17.05;100.00
19789;BME280;10054;59.332;18.244;2023-07-31T12:24:44;99709.02;;;17.04;100.00
19789;BME280;10054;59.332;18.244;2023-07-31T12:27:14;99708.03;;;17.05;100.00
19789;BME280;10054;59.332;18.244;2023-07-31T12:29:44;99707.38;;;17.07;100.00
19789;BME280;10054;59.332;18.244;2023-07-31T12:32:21;99706.85;;;17.04;100.00
19789;BME280;10054;59.332;18.244;2023-07-31T12:34:50;99711.37;;;17.07;100.00
19789;BME280;10054;59.332;18.244;2023-07-31T12:37:18;99709.52;;;17.12;100.00
19789;BME280;10054;59.332;18.244;2023-07-31T12:39:49;99707.05;;;17.19;100.00
19789;BME280;10054;59.332;18.244;2023-07-31T12:42:18;99709.09;;;17.29;100.00
19789;BME280;10054;59.332;18.244;2023-07-31T12:44:46;99708.12;;;17.38;100.00
19789;BME280;10054;59.332;18.244;2023-07-31T12:47:15;99701.49;;;17.46;100.00
19789;BME280;10054;59.332;18.244;2023-07-31T12:49:44;99701.19;;;17.57;100.00
19789;BME280;10054;59.332;18.244;2023-07-31T12:52:13;99698.75;;;17.68;100.00
19789;BME280;10054;59.332;18.244;2023-07-31T12:54:41;99701.43;;;17.76;100.00
19789;BME280;10054;59.332;18.244;2023-07-31T12:57:10;99699.24;;;17.84;100.00
19789;BME280;10054;59.332;18.244;2023-07-31T12:59:38;99698.92;;;17.91;100.00
19789;BME280;10054;59.332;18.244;2023-07-31T13:02:07;99695.59;;;17.97;100.00
19789;BME280;10054;59.332;18.244;2023-07-31T13:04:35;99696.59;;;18.00;100.00
19789;BME280;10054;59.332;18.244;2023-07-31T13:07:04;99694.92;;;17.99;100.00
19789;BME280;10054;59.332;18.244;2023-07-31T13:09:33;99688.58;;;17.96;100.00
19789;BME280;10054;59.332;18.244;2023-07-31T13:12:01;99693.75;;;17.93;100.00
19789;BME280;10054;59.332;18.244;2023-07-31T13:14:30;99694.91;;;17.91;100.00
19789;BME280;10054;59.332;18.244;2023-07-31T13:16:59;99690.08;;;17.90;100.00
19789;BME280;10054;59.332;18.244;2023-07-31T13:19:27;99688.24;;;17.91;100.00
19789;BME280;10054;59.332;18.244;2023-07-31T13:21:56;99686.23;;;17.89;100.00
19789;BME280;10054;59.332;18.244;2023-07-31T13:24:24;99684.57;;;17.88;100.00
19789;BME280;10054;59.332;18.244;2023-07-31T13:26:53;99682.91;;;17.87;100.00
19789;BME280;10054;59.332;18.244;2023-07-31T13:29:22;99683.41;;;17.86;100.00
19789;BME280;10054;59.332;18.244;2023-07-31T13:31:53;99678.73;;;17.84;100.00
19789;BME280;10054;59.332;18.244;2023-07-31T13:34:22;99676.56;;;17.88;100.00
19789;BME280;10054;59.332;18.244;2023-07-31T13:36:50;99672.73;;;17.94;100.00
19789;BME280;10054;59.332;18.244;2023-07-31T13:39:19;99670.07;;;17.98;100.00
19789;BME280;10054;59.332;18.244;2023-07-31T13:41:48;99667.07;;;18.05;100.00
19789;BME280;10054;59.332;18.244;2023-07-31T13:44:16;99671.91;;;18.06;100.00
19789;BME280;10054;59.332;18.244;2023-07-31T13:46:45;99673.91;;;18.08;100.00
19789;BME280;10054;59.332;18.244;2023-07-31T13:49:13;99668.41;;;18.10;100.00
19789;BME280;10054;59.332;18.244;2023-07-31T13:51:43;99670.41;;;18.08;100.00
19789;BME280;10054;59.332;18.244;2023-07-31T13:54:12;99678.58;;;18.10;100.00
19789;BME280;10054;59.332;18.244;2023-07-31T13:56:43;99675.74;;;18.08;100.00
19789;BME280;10054;59.332;18.244;2023-07-31T13:59:12;99678.08;;;17.98;100.00
19789;BME280;10054;59.332;18.244;2023-07-31T14:01:47;99685.73;;;17.89;100.00
19789;BME280;10054;59.332;18.244;2023-07-31T14:04:13;99679.59;;;17.81;100.00
19789;BME280;10054;59.332;18.244;2023-07-31T14:06:42;99678.08;;;17.74;100.00
19789;BME280;10054;59.332;18.244;2023-07-31T14:09:11;99673.91;;;17.67;100.00
19789;BME280;10054;59.332;18.244;2023-07-31T14:11:39;99670.86;;;17.62;100.00
19789;BME280;10054;59.332;18.244;2023-07-31T14:14:09;99670.18;;;17.56;100.00
19789;BME280;10054;59.332;18.244;2023-07-31T14:16:38;99669.84;;;17.51;100.00
19789;BME280;10054;59.332;18.244;2023-07-31T14:19:06;99667.33;;;17.46;100.00
19789;BME280;10054;59.332;18.244;2023-07-31T14:21:36;99659.14;;;17.39;100.00
19789;BME280;10054;59.332;18.244;2023-07-31T14:24:05;99663.97;;;17.35;100.00
19789;BME280;10054;59.332;18.244;2023-07-31T14:26:33;99662.45;;;17.33;100.00
19789;BME280;10054;59.332;18.244;2023-07-31T14:29:02;99661.45;;;17.30;100.00
19789;BME280;10054;59.332;18.244;2023-07-31T14:31:30;99661.62;;;17.32;100.00
19789;BME280;10054;59.332;18.244;2023-07-31T14:33:59;99659.30;;;17.33;100.00
19789;BME280;10054;59.332;18.244;2023-07-31T14:36:28;99659.30;;;17.33;100.00
19789;BME280;10054;59.332;18.244;2023-07-31T14:38:56;99657.46;;;17.34;100.00
19789;BME280;10054;59.332;18.244;2023-07-31T14:41:25;99657.63;;;17.32;100.00
19789;BME280;10054;59.332;18.244;2023-07-31T14:43:53;99658.63;;;17.31;100.00
19789;BME280;10054;59.332;18.244;2023-07-31T14:46:22;99652.62;;;17.29;100.00
19789;BME280;10054;59.332;18.244;2023-07-31T14:48:50;99649.11;;;17.25;100.00
19789;BME280;10054;59.332;18.244;2023-07-31T14:51:19;99654.59;;;17.23;100.00
19789;BME280;10054;59.332;18.244;2023-07-31T14:53:48;99648.43;;;17.23;100.00
19789;BME280;10054;59.332;18.244;2023-07-31T14:56:16;99654.09;;;17.24;100.00
19789;BME280;10054;59.332;18.244;2023-07-31T14:58:45;99649.60;;;17.24;100.00
19789;BME280;10054;59.332;18.244;2023-07-31T15:01:13;99653.11;;;17.25;100.00
19789;BME280;10054;59.332;18.244;2023-07-31T15:03:42;99652.27;;;17.24;100.00
19789;BME280;10054;59.332;18.244;2023-07-31T15:06:11;99639.77;;;17.25;100.00
19789;BME280;10054;59.332;18.244;2023-07-31T15:08:40;99640.09;;;17.22;100.00
19789;BME280;10054;59.332;18.244;2023-07-31T15:11:10;99640.42;;;17.19;100.00
19789;BME280;10054;59.332;18.244;2023-07-31T15:13:39;99638.73;;;17.14;100.00
19789;BME280;10054;59.332;18.244;2023-07-31T15:16:07;99637.91;;;17.05;100.00
19789;BME280;10054;59.332;18.244;2023-07-31T15:18:36;99636.41;;;17.02;100.00
19789;BME280;10054;59.332;18.244;2023-07-31T15:21:04;99638.89;;;17.00;100.00
19789;BME280;10054;59.332;18.244;2023-07-31T15:23:34;99636.88;;;16.98;100.00
19789;BME280;10054;59.332;18.244;2023-07-31T15:26:02;99639.03;;;16.94;100.00
19789;BME280;10054;59.332;18.244;2023-07-31T15:28:31;99638.70;;;16.93;100.00
19789;BME280;10054;59.332;18.244;2023-07-31T15:31:01;99637.34;;;16.89;100.00
19789;BME280;10054;59.332;18.244;2023-07-31T15:33:30;99638.00;;;16.87;100.00
19789;BME280;10054;59.332;18.244;2023-07-31T15:35:59;99635.98;;;16.81;100.00
19789;BME280;10054;59.332;18.244;2023-07-31T15:38:27;99640.97;;;16.80;100.00
19789;BME280;10054;59.332;18.244;2023-07-31T15:40:56;99640.27;;;16.74;100.00
19789;BME280;10054;59.332;18.244;2023-07-31T15:43:27;99639.09;;;16.72;100.00
19789;BME280;10054;59.332;18.244;2023-07-31T15:45:56;99633.44;;;16.71;100.00
19789;BME280;10054;59.332;18.244;2023-07-31T15:48:25;99637.43;;;16.71;100.00
19789;BME280;10054;59.332;18.244;2023-07-31T15:50:54;99632.59;;;16.71;100.00
19789;BME280;10054;59.332;18.244;2023-07-31T15:53:25;99631.94;;;16.73;100.00
19789;BME280;10054;59.332;18.244;2023-07-31T15:55:53;99628.27;;;16.70;100.00
19789;BME280;10054;59.332;18.244;2023-07-31T15:58:22;99637.43;;;16.71;100.00
19789;BME280;10054;59.332;18.244;2023-07-31T16:00:51;99631.92;;;16.69;100.00
19789;BME280;10054;59.332;18.244;2023-07-31T16:03:19;99631.42;;;16.69;100.00
19789;BME280;10054;59.332;18.244;2023-07-31T16:05:49;99634.09;;;16.69;100.00